createdAt,value
2018-07-03T00:00:52.339Z,0.00
2018-07-03T00:01:52.329Z,0.00
2018-07-03T00:02:52.316Z,0.00
2018-07-03T00:03:52.307Z,0.00
2018-07-03T00:04:52.316Z,0.00
2018-07-03T00:05:52.284Z,0.00
2018-07-03T00:06:52.272Z,0.00
2018-07-03T00:07:52.261Z,0.00
2018-07-03T00:08:52.253Z,0.00
2018-07-03T00:09:52.265Z,0.00
2018-07-03T00:10:52.227Z,0.00
2018-07-03T00:11:52.216Z,0.00
2018-07-03T00:12:52.208Z,0.00
2018-07-03T00:13:52.194Z,0.00
2018-07-03T00:14:52.206Z,0.00
2018-07-03T00:15:52.174Z,0.00
2018-07-03T00:16:52.160Z,0.00
2018-07-03T00:17:52.149Z,0.00
2018-07-03T00:18:52.138Z,0.00
2018-07-03T00:19:52.150Z,0.00
2018-07-03T00:20:52.115Z,0.00
2018-07-03T00:21:52.106Z,0.00
2018-07-03T00:22:52.093Z,0.00
2018-07-03T00:23:52.084Z,0.00
2018-07-03T00:24:52.098Z,0.00
2018-07-03T00:25:52.062Z,0.00
2018-07-03T00:26:52.048Z,0.00
2018-07-03T00:27:52.039Z,0.00
2018-07-03T00:28:52.027Z,0.00
2018-07-03T00:29:52.039Z,0.00
2018-07-03T00:30:52.013Z,0.00
2018-07-03T00:31:51.996Z,0.00
2018-07-03T00:32:51.982Z,0.00
2018-07-03T00:33:51.972Z,0.00
2018-07-03T00:34:51.983Z,0.00
2018-07-03T00:35:51.948Z,0.00
2018-07-03T00:36:51.941Z,0.00
2018-07-03T00:37:51.927Z,0.00
2018-07-03T00:38:51.915Z,0.00
2018-07-03T00:39:51.936Z,0.00
2018-07-03T00:40:51.893Z,0.00
2018-07-03T00:41:51.881Z,0.00
2018-07-03T00:42:51.871Z,0.00
2018-07-03T00:43:51.864Z,0.00
2018-07-03T00:44:51.875Z,0.00
2018-07-03T00:45:51.840Z,0.00
2018-07-03T00:46:51.827Z,0.00
2018-07-03T00:47:51.815Z,0.00
2018-07-03T00:48:51.804Z,0.00
2018-07-03T00:49:51.816Z,0.00
2018-07-03T00:50:51.782Z,0.00
2018-07-03T00:51:51.770Z,0.00
2018-07-03T00:52:51.760Z,0.00
2018-07-03T00:53:51.748Z,0.00
2018-07-03T00:54:51.762Z,0.00
2018-07-03T00:55:51.727Z,0.00
2018-07-03T00:56:51.714Z,0.00
2018-07-03T00:57:51.703Z,0.00
2018-07-03T00:58:51.693Z,0.00
2018-07-03T00:59:51.705Z,0.00
2018-07-03T01:00:51.671Z,0.00
2018-07-03T01:01:51.659Z,0.00
2018-07-03T01:02:51.648Z,0.00
2018-07-03T01:03:51.638Z,0.00
2018-07-03T01:04:51.650Z,0.00
2018-07-03T01:05:51.614Z,0.00
2018-07-03T01:06:51.603Z,0.00
2018-07-03T01:07:51.597Z,0.00
2018-07-03T01:08:51.582Z,0.00
2018-07-03T01:09:51.593Z,0.00
2018-07-03T01:10:51.564Z,0.00
2018-07-03T01:11:51.547Z,0.00
2018-07-03T01:12:51.537Z,0.00
2018-07-03T01:13:51.525Z,0.00
2018-07-03T01:14:51.536Z,0.00
2018-07-03T01:15:51.503Z,0.00
2018-07-03T01:16:51.492Z,0.00
2018-07-03T01:17:51.519Z,0.00
2018-07-03T01:18:51.471Z,0.00
2018-07-03T01:19:51.481Z,0.00
2018-07-03T01:20:51.447Z,0.00
2018-07-03T01:21:51.438Z,0.00
2018-07-03T01:22:51.425Z,0.00
2018-07-03T01:23:51.413Z,0.00
2018-07-03T01:24:51.426Z,0.00
2018-07-03T01:25:51.392Z,0.00
2018-07-03T01:26:51.380Z,0.00
2018-07-03T01:27:51.370Z,0.00
2018-07-03T01:28:51.358Z,0.00
2018-07-03T01:29:51.348Z,0.00
2018-07-03T01:30:51.362Z,0.00
2018-07-03T01:31:51.325Z,0.00
2018-07-03T01:32:51.313Z,0.00
2018-07-03T01:33:51.302Z,0.00
2018-07-03T01:34:51.313Z,0.00
2018-07-03T01:35:51.279Z,0.00
2018-07-03T01:36:51.268Z,0.00
2018-07-03T01:37:51.259Z,0.00
2018-07-03T01:38:51.248Z,0.00
2018-07-03T01:39:51.238Z,0.00
2018-07-03T01:40:51.248Z,0.00
2018-07-03T01:41:51.219Z,0.00
2018-07-03T01:42:51.202Z,0.00
2018-07-03T01:43:51.190Z,0.00
2018-07-03T01:44:51.181Z,0.00
2018-07-03T01:45:51.193Z,0.00
2018-07-03T01:46:51.158Z,0.00
2018-07-03T01:47:51.147Z,0.00
2018-07-03T01:48:51.137Z,0.00
2018-07-03T01:49:51.132Z,0.00
2018-07-03T01:50:51.174Z,0.00
2018-07-03T01:51:51.103Z,0.00
2018-07-03T01:52:51.103Z,0.00
2018-07-03T01:53:51.082Z,0.00
2018-07-03T01:54:51.070Z,0.00
2018-07-03T01:55:51.090Z,0.00
2018-07-03T01:56:51.046Z,0.00
2018-07-03T01:57:51.039Z,0.00
2018-07-03T01:58:51.025Z,0.00
2018-07-03T01:59:51.014Z,0.00
2018-07-03T02:00:51.026Z,0.00
2018-07-03T02:01:50.991Z,0.00
2018-07-03T02:02:50.980Z,0.00
2018-07-03T02:03:50.971Z,0.00
2018-07-03T02:04:50.958Z,0.00
2018-07-03T02:05:50.970Z,0.00
2018-07-03T02:06:50.936Z,0.00
2018-07-03T02:07:50.925Z,0.00
2018-07-03T02:08:50.913Z,0.00
2018-07-03T02:09:50.902Z,0.00
2018-07-03T02:10:50.914Z,0.00
2018-07-03T02:11:50.882Z,0.00
2018-07-03T02:12:50.869Z,0.00
2018-07-03T02:13:50.859Z,0.00
2018-07-03T02:14:50.846Z,0.00
2018-07-03T02:15:50.861Z,0.00
2018-07-03T02:16:50.826Z,0.00
2018-07-03T02:17:50.814Z,0.00
2018-07-03T02:18:50.804Z,0.00
2018-07-03T02:19:50.793Z,0.00
2018-07-03T02:20:50.806Z,0.00
2018-07-03T02:21:50.772Z,0.00
2018-07-03T02:22:50.760Z,0.00
2018-07-03T02:23:50.749Z,0.00
2018-07-03T02:24:50.740Z,0.00
2018-07-03T02:25:50.751Z,0.00
2018-07-03T02:26:50.718Z,0.00
2018-07-03T02:27:50.705Z,0.00
2018-07-03T02:28:50.695Z,0.00
2018-07-03T02:29:50.683Z,0.00
2018-07-03T02:30:50.697Z,0.00
2018-07-03T02:31:50.663Z,0.00
2018-07-03T02:32:50.673Z,0.00
2018-07-03T02:33:50.641Z,0.00
2018-07-03T02:34:50.628Z,0.00
2018-07-03T02:35:50.619Z,0.00
2018-07-03T02:36:50.605Z,0.00
2018-07-03T02:37:50.620Z,0.00
2018-07-03T02:38:50.585Z,0.00
2018-07-03T02:39:50.573Z,0.00
2018-07-03T02:40:50.561Z,0.00
2018-07-03T02:41:50.551Z,0.00
2018-07-03T02:42:50.580Z,0.00
2018-07-03T02:43:50.534Z,0.00
2018-07-03T02:44:50.518Z,0.00
2018-07-03T02:45:50.508Z,0.00
2018-07-03T02:46:50.495Z,0.00
2018-07-03T02:47:50.508Z,0.00
2018-07-03T02:48:50.473Z,0.00
2018-07-03T02:49:50.463Z,0.00
2018-07-03T02:50:50.452Z,0.00
2018-07-03T02:51:50.446Z,0.00
2018-07-03T02:52:50.453Z,0.00
2018-07-03T02:53:50.419Z,0.00
2018-07-03T02:54:50.411Z,0.00
2018-07-03T02:55:50.396Z,0.00
2018-07-03T02:56:50.387Z,0.00
2018-07-03T02:57:50.398Z,0.00
2018-07-03T02:58:50.364Z,0.00
2018-07-03T02:59:50.361Z,0.00
2018-07-03T03:00:50.343Z,0.00
2018-07-03T03:01:50.333Z,0.00
2018-07-03T03:02:50.342Z,0.00
2018-07-03T03:03:50.308Z,0.00
2018-07-03T03:04:50.300Z,0.00
2018-07-03T03:05:50.289Z,0.00
2018-07-03T03:06:50.278Z,0.00
2018-07-03T03:07:50.267Z,0.00
2018-07-03T03:08:50.277Z,0.00
2018-07-03T03:09:50.245Z,0.00
2018-07-03T03:10:50.232Z,0.00
2018-07-03T03:11:50.221Z,0.00
2018-07-03T03:12:50.212Z,0.00
2018-07-03T03:13:50.222Z,0.00
2018-07-03T03:14:50.191Z,0.00
2018-07-03T03:15:50.179Z,0.00
2018-07-03T03:16:50.167Z,0.00
2018-07-03T03:17:50.158Z,0.00
2018-07-03T03:18:50.169Z,0.00
2018-07-03T03:19:50.133Z,0.00
2018-07-03T03:20:50.122Z,0.00
2018-07-03T03:21:50.112Z,0.00
2018-07-03T03:22:50.106Z,0.00
2018-07-03T03:23:50.114Z,0.00
2018-07-03T03:24:50.078Z,0.00
2018-07-03T03:25:50.067Z,0.00
2018-07-03T03:26:50.058Z,0.00
2018-07-03T03:27:50.049Z,0.00
2018-07-03T03:28:50.062Z,0.00
2018-07-03T03:29:50.023Z,0.00
2018-07-03T03:30:50.016Z,0.00
2018-07-03T03:31:50.005Z,0.00
2018-07-03T03:32:49.991Z,0.00
2018-07-03T03:33:50.003Z,0.00
2018-07-03T03:34:49.969Z,0.00
2018-07-03T03:35:49.957Z,0.00
2018-07-03T03:36:49.949Z,0.00
2018-07-03T03:37:49.935Z,0.00
2018-07-03T03:38:49.947Z,0.00
2018-07-03T03:39:49.912Z,0.00
2018-07-03T03:40:49.901Z,0.00
2018-07-03T03:41:49.895Z,0.00
2018-07-03T03:42:49.880Z,0.00
2018-07-03T03:43:49.894Z,0.00
2018-07-03T03:44:49.858Z,0.00
2018-07-03T03:45:49.848Z,0.00
2018-07-03T03:46:49.835Z,0.00
2018-07-03T03:47:49.824Z,0.00
2018-07-03T03:48:49.836Z,0.00
2018-07-03T03:49:49.804Z,0.00
2018-07-03T03:50:49.791Z,0.00
2018-07-03T03:51:49.780Z,0.00
2018-07-03T03:52:49.770Z,0.00
2018-07-03T03:53:49.885Z,0.00
2018-07-03T03:54:49.749Z,0.00
2018-07-03T03:55:49.737Z,0.00
2018-07-03T03:56:49.726Z,0.00
2018-07-03T03:57:49.715Z,0.00
2018-07-03T03:58:49.726Z,0.00
2018-07-03T03:59:49.693Z,0.00
2018-07-03T04:00:49.723Z,0.00
2018-07-03T04:01:49.687Z,5.62
2018-07-03T04:02:49.660Z,5.62
2018-07-03T04:03:49.674Z,5.62
2018-07-03T04:04:49.639Z,5.62
2018-07-03T04:05:49.628Z,5.62
2018-07-03T04:06:49.618Z,11.25
2018-07-03T04:07:49.605Z,5.62
2018-07-03T04:08:49.617Z,5.62
2018-07-03T04:09:49.583Z,5.62
2018-07-03T04:10:49.575Z,5.62
2018-07-03T04:11:49.563Z,5.62
2018-07-03T04:12:49.551Z,5.62
2018-07-03T04:13:49.562Z,5.62
2018-07-03T04:14:49.528Z,5.62
2018-07-03T04:15:49.516Z,5.62
2018-07-03T04:16:49.507Z,5.62
2018-07-03T04:17:49.495Z,5.62
2018-07-03T04:18:49.507Z,5.62
2018-07-03T04:19:49.473Z,5.62
2018-07-03T04:20:49.462Z,5.62
2018-07-03T04:21:49.453Z,5.62
2018-07-03T04:22:49.440Z,5.62
2018-07-03T04:23:49.452Z,5.62
2018-07-03T04:24:49.417Z,5.62
2018-07-03T04:25:49.410Z,5.62
2018-07-03T04:26:49.396Z,5.62
2018-07-03T04:27:49.384Z,5.62
2018-07-03T04:28:49.397Z,5.62
2018-07-03T04:29:49.365Z,5.62
2018-07-03T04:30:49.353Z,5.62
2018-07-03T04:31:49.341Z,5.62
2018-07-03T04:32:49.330Z,5.62
2018-07-03T04:33:49.342Z,5.62
2018-07-03T04:34:49.309Z,5.62
2018-07-03T04:35:49.296Z,5.62
2018-07-03T04:36:49.286Z,5.62
2018-07-03T04:37:49.276Z,5.62
2018-07-03T04:38:49.287Z,5.62
2018-07-03T04:39:49.254Z,5.62
2018-07-03T04:40:49.241Z,5.62
2018-07-03T04:41:49.232Z,5.62
2018-07-03T04:42:49.220Z,5.62
2018-07-03T04:43:49.230Z,5.62
2018-07-03T04:44:49.196Z,5.62
2018-07-03T04:45:49.186Z,5.62
2018-07-03T04:46:49.178Z,5.62
2018-07-03T04:47:49.162Z,5.62
2018-07-03T04:48:49.176Z,5.62
2018-07-03T04:49:49.146Z,5.62
2018-07-03T04:50:49.130Z,5.62
2018-07-03T04:51:49.123Z,5.62
2018-07-03T04:52:49.108Z,5.62
2018-07-03T04:53:49.128Z,5.62
2018-07-03T04:54:49.087Z,5.62
2018-07-03T04:55:49.075Z,5.62
2018-07-03T04:56:49.066Z,5.62
2018-07-03T04:57:49.054Z,5.62
2018-07-03T04:58:49.075Z,11.25
2018-07-03T04:59:49.030Z,11.25
2018-07-03T05:00:49.020Z,11.25
2018-07-03T05:01:49.010Z,11.25
2018-07-03T05:02:49.006Z,11.25
2018-07-03T05:03:48.989Z,11.25
2018-07-03T05:04:48.999Z,11.25
2018-07-03T05:05:48.965Z,11.25
2018-07-03T05:06:48.956Z,11.25
2018-07-03T05:07:48.944Z,11.25
2018-07-03T05:08:48.934Z,11.25
2018-07-03T05:09:48.944Z,11.25
2018-07-03T05:10:48.910Z,11.25
2018-07-03T05:11:48.899Z,11.25
2018-07-03T05:12:48.889Z,11.25
2018-07-03T05:13:48.882Z,11.25
2018-07-03T05:14:48.889Z,11.25
2018-07-03T05:15:48.857Z,11.25
2018-07-03T05:16:48.844Z,11.25
2018-07-03T05:17:48.832Z,11.25
2018-07-03T05:18:48.822Z,11.25
2018-07-03T05:19:48.832Z,11.25
2018-07-03T05:20:48.798Z,11.25
2018-07-03T05:21:48.788Z,11.25
2018-07-03T05:22:48.777Z,11.25
2018-07-03T05:23:48.765Z,11.25
2018-07-03T05:24:48.781Z,11.25
2018-07-03T05:25:48.744Z,11.25
2018-07-03T05:26:48.733Z,11.25
2018-07-03T05:27:48.722Z,11.25
2018-07-03T05:28:48.710Z,11.25
2018-07-03T05:29:48.723Z,11.25
2018-07-03T05:30:48.690Z,11.25
2018-07-03T05:31:48.679Z,11.25
2018-07-03T05:32:48.667Z,11.25
2018-07-03T05:33:48.657Z,11.25
2018-07-03T05:34:48.667Z,11.25
2018-07-03T05:35:48.635Z,11.25
2018-07-03T05:36:48.624Z,11.25
2018-07-03T05:37:48.762Z,11.25
2018-07-03T05:38:48.601Z,11.25
2018-07-03T05:39:48.617Z,11.25
2018-07-03T05:40:48.579Z,11.25
2018-07-03T05:41:48.567Z,11.25
2018-07-03T05:42:48.561Z,11.25
2018-07-03T05:43:48.546Z,11.25
2018-07-03T05:44:48.559Z,11.25
2018-07-03T05:45:48.525Z,11.25
2018-07-03T05:46:48.514Z,11.25
2018-07-03T05:47:48.502Z,11.25
2018-07-03T05:48:48.492Z,11.25
2018-07-03T05:49:48.503Z,11.25
2018-07-03T05:50:48.471Z,11.25
2018-07-03T05:51:48.462Z,11.25
2018-07-03T05:52:48.446Z,11.25
2018-07-03T05:53:48.440Z,11.25
2018-07-03T05:54:48.449Z,11.25
2018-07-03T05:55:48.414Z,11.25
2018-07-03T05:56:48.403Z,11.25
2018-07-03T05:57:48.392Z,11.25
2018-07-03T05:58:48.380Z,11.25
2018-07-03T05:59:48.394Z,11.25
2018-07-03T06:00:48.361Z,11.25
2018-07-03T06:01:48.348Z,11.25
2018-07-03T06:02:48.337Z,11.25
2018-07-03T06:03:48.364Z,11.25
2018-07-03T06:04:48.339Z,11.25
2018-07-03T06:05:48.306Z,11.25
2018-07-03T06:06:48.293Z,11.25
2018-07-03T06:07:48.281Z,16.88
2018-07-03T06:08:48.271Z,16.88
2018-07-03T06:09:48.284Z,16.88
2018-07-03T06:10:48.248Z,16.88
2018-07-03T06:11:48.238Z,16.88
2018-07-03T06:12:48.226Z,73.12
2018-07-03T06:13:48.221Z,73.12
2018-07-03T06:14:48.261Z,73.12
2018-07-03T06:15:48.193Z,73.12
2018-07-03T06:16:48.182Z,78.75
2018-07-03T06:17:48.171Z,78.75
2018-07-03T06:18:48.160Z,78.75
2018-07-03T06:19:48.171Z,78.75
2018-07-03T06:20:48.139Z,78.75
2018-07-03T06:21:48.126Z,78.75
2018-07-03T06:22:48.178Z,78.75
2018-07-03T06:23:48.105Z,78.75
2018-07-03T06:24:48.116Z,78.75
2018-07-03T06:25:48.082Z,78.75
2018-07-03T06:26:48.071Z,78.75
2018-07-03T06:27:48.062Z,78.75
2018-07-03T06:28:48.074Z,78.75
2018-07-03T06:29:48.059Z,78.75
2018-07-03T06:30:48.025Z,78.75
2018-07-03T06:31:48.015Z,78.75
2018-07-03T06:32:48.003Z,78.75
2018-07-03T06:33:47.991Z,78.75
2018-07-03T06:34:48.008Z,84.38
2018-07-03T06:35:47.971Z,84.38
2018-07-03T06:36:47.970Z,84.38
2018-07-03T06:37:47.947Z,84.38
2018-07-03T06:38:47.942Z,84.38
2018-07-03T06:39:47.948Z,84.38
2018-07-03T06:40:48.015Z,84.38
2018-07-03T06:41:48.001Z,84.38
2018-07-03T06:42:47.893Z,84.38
2018-07-03T06:43:47.880Z,84.38
2018-07-03T06:44:47.950Z,84.38
2018-07-03T06:45:47.859Z,84.38
2018-07-03T06:46:47.848Z,84.38
2018-07-03T06:47:47.837Z,84.38
2018-07-03T06:48:47.828Z,84.38
2018-07-03T06:49:47.817Z,84.38
2018-07-03T06:50:47.826Z,84.38
2018-07-03T06:51:47.854Z,84.38
2018-07-03T06:52:47.830Z,84.38
2018-07-03T06:53:47.772Z,84.38
2018-07-03T06:54:47.763Z,84.38
2018-07-03T06:55:47.771Z,84.38
2018-07-03T06:56:47.743Z,84.38
2018-07-03T06:57:47.784Z,84.38
2018-07-03T06:58:47.716Z,90.00
2018-07-03T06:59:47.730Z,90.00
2018-07-03T07:00:47.719Z,90.00
2018-07-03T07:01:47.683Z,90.00
2018-07-03T07:02:47.673Z,90.00
2018-07-03T07:03:47.661Z,90.00
2018-07-03T07:04:47.652Z,84.38
2018-07-03T07:05:47.661Z,84.38
2018-07-03T07:06:47.628Z,84.38
2018-07-03T07:07:47.617Z,84.38
2018-07-03T07:08:47.787Z,84.38
2018-07-03T07:09:47.602Z,84.38
2018-07-03T07:10:47.609Z,84.38
2018-07-03T07:11:47.591Z,84.38
2018-07-03T07:12:47.562Z,84.38
2018-07-03T07:13:47.550Z,84.38
2018-07-03T07:14:47.540Z,84.38
2018-07-03T07:15:47.551Z,84.38
2018-07-03T07:16:47.518Z,84.38
2018-07-03T07:17:47.507Z,84.38
2018-07-03T07:18:47.496Z,84.38
2018-07-03T07:19:47.486Z,84.38
2018-07-03T07:20:47.498Z,84.38
2018-07-03T07:21:47.463Z,90.00
2018-07-03T07:22:47.452Z,90.00
2018-07-03T07:23:47.441Z,90.00
2018-07-03T07:24:47.433Z,90.00
2018-07-03T07:25:47.442Z,90.00
2018-07-03T07:26:47.409Z,90.00
2018-07-03T07:27:47.398Z,90.00
2018-07-03T07:28:47.386Z,90.00
2018-07-03T07:29:47.377Z,90.00
2018-07-03T07:30:47.390Z,90.00
2018-07-03T07:31:47.354Z,90.00
2018-07-03T07:32:47.342Z,90.00
2018-07-03T07:33:47.332Z,90.00
2018-07-03T07:34:47.320Z,90.00
2018-07-03T07:35:47.340Z,90.00
2018-07-03T07:36:47.298Z,90.00
2018-07-03T07:37:47.290Z,90.00
2018-07-03T07:38:47.276Z,90.00
2018-07-03T07:39:47.266Z,90.00
2018-07-03T07:40:47.279Z,90.00
2018-07-03T07:41:47.244Z,90.00
2018-07-03T07:42:47.319Z,90.00
2018-07-03T07:43:47.221Z,90.00
2018-07-03T07:44:47.211Z,90.00
2018-07-03T07:45:47.222Z,61.88
2018-07-03T07:46:47.190Z,73.12
2018-07-03T07:47:47.179Z,84.38
2018-07-03T07:48:47.167Z,84.38
2018-07-03T07:49:47.157Z,84.38
2018-07-03T07:50:47.169Z,84.38
2018-07-03T07:51:47.134Z,84.38
2018-07-03T07:52:47.123Z,84.38
2018-07-03T07:53:47.116Z,84.38
2018-07-03T07:54:47.108Z,84.38
2018-07-03T07:55:47.113Z,84.38
2018-07-03T07:56:47.080Z,67.50
2018-07-03T07:57:47.104Z,84.38
2018-07-03T07:58:47.058Z,84.38
2018-07-03T07:59:47.047Z,84.38
2018-07-03T08:00:47.060Z,84.38
2018-07-03T08:01:47.024Z,84.38
2018-07-03T08:02:47.013Z,84.38
2018-07-03T08:03:47.004Z,84.38
2018-07-03T08:04:46.994Z,84.38
2018-07-03T08:05:47.006Z,84.38
2018-07-03T08:06:47.049Z,84.38
2018-07-03T08:07:46.961Z,84.38
2018-07-03T08:08:46.948Z,84.38
2018-07-03T08:09:46.935Z,84.38
2018-07-03T08:10:46.950Z,84.38
2018-07-03T08:11:46.915Z,84.38
2018-07-03T08:12:46.904Z,84.38
2018-07-03T08:13:46.895Z,84.38
2018-07-03T08:14:46.888Z,84.38
2018-07-03T08:15:46.894Z,84.38
2018-07-03T08:16:46.861Z,84.38
2018-07-03T08:17:46.851Z,84.38
2018-07-03T08:18:46.843Z,84.38
2018-07-03T08:19:46.830Z,84.38
2018-07-03T08:20:46.839Z,84.38
2018-07-03T08:21:46.804Z,84.38
2018-07-03T08:22:46.793Z,78.75
2018-07-03T08:23:46.781Z,84.38
2018-07-03T08:24:46.775Z,84.38
2018-07-03T08:25:46.782Z,84.38
2018-07-03T08:26:46.750Z,78.75
2018-07-03T08:27:46.739Z,78.75
2018-07-03T08:28:46.727Z,84.38
2018-07-03T08:29:46.719Z,84.38
2018-07-03T08:30:46.706Z,84.38
2018-07-03T08:31:46.722Z,84.38
2018-07-03T08:32:46.682Z,84.38
2018-07-03T08:33:46.671Z,84.38
2018-07-03T08:34:46.662Z,84.38
2018-07-03T08:35:46.651Z,84.38
2018-07-03T08:36:46.670Z,84.38
2018-07-03T08:37:46.688Z,84.38
2018-07-03T08:38:46.617Z,84.38
2018-07-03T08:39:46.604Z,84.38
2018-07-03T08:40:46.596Z,84.38
2018-07-03T08:41:46.610Z,84.38
2018-07-03T08:42:46.577Z,84.38
2018-07-03T08:43:46.561Z,84.38
2018-07-03T08:44:46.550Z,84.38
2018-07-03T08:45:46.538Z,84.38
2018-07-03T08:46:46.551Z,84.38
2018-07-03T08:47:46.517Z,84.38
2018-07-03T08:48:46.507Z,84.38
2018-07-03T08:49:46.495Z,84.38
2018-07-03T08:50:46.486Z,84.38
2018-07-03T08:51:46.586Z,84.38
2018-07-03T08:52:46.464Z,84.38
2018-07-03T08:53:46.451Z,84.38
2018-07-03T08:54:46.447Z,84.38
2018-07-03T08:55:46.430Z,84.38
2018-07-03T08:56:46.442Z,84.38
2018-07-03T08:57:46.409Z,84.38
2018-07-03T08:58:46.399Z,84.38
2018-07-03T08:59:46.386Z,84.38
2018-07-03T09:00:46.386Z,84.38
2018-07-03T09:01:46.386Z,84.38
2018-07-03T09:02:46.352Z,84.38
2018-07-03T09:03:46.347Z,84.38
2018-07-03T09:04:46.332Z,84.38
2018-07-03T09:05:46.320Z,84.38
2018-07-03T09:06:46.343Z,84.38
2018-07-03T09:07:46.298Z,84.38
2018-07-03T09:08:46.289Z,84.38
2018-07-03T09:09:46.276Z,84.38
2018-07-03T09:10:46.266Z,84.38
2018-07-03T09:11:46.276Z,84.38
2018-07-03T09:12:46.243Z,84.38
2018-07-03T09:13:46.232Z,84.38
2018-07-03T09:14:46.222Z,84.38
2018-07-03T09:15:46.210Z,84.38
2018-07-03T09:16:46.223Z,84.38
2018-07-03T09:17:46.188Z,84.38
2018-07-03T09:18:46.176Z,84.38
2018-07-03T09:19:46.166Z,84.38
2018-07-03T09:20:46.156Z,84.38
2018-07-03T09:21:46.171Z,84.38
2018-07-03T09:22:46.135Z,84.38
2018-07-03T09:23:46.122Z,84.38
2018-07-03T09:24:46.110Z,84.38
2018-07-03T09:25:46.101Z,84.38
2018-07-03T09:26:46.111Z,84.38
2018-07-03T09:27:46.078Z,84.38
2018-07-03T09:28:46.067Z,84.38
2018-07-03T09:29:46.056Z,84.38
2018-07-03T09:30:46.100Z,84.38
2018-07-03T09:31:46.057Z,84.38
2018-07-03T09:32:46.023Z,84.38
2018-07-03T09:33:46.060Z,84.38
2018-07-03T09:34:46.001Z,84.38
2018-07-03T09:35:45.989Z,84.38
2018-07-03T09:36:46.003Z,84.38
2018-07-03T09:37:45.969Z,84.38
2018-07-03T09:38:45.957Z,84.38
2018-07-03T09:39:45.949Z,84.38
2018-07-03T09:40:45.935Z,84.38
2018-07-03T09:41:45.948Z,84.38
2018-07-03T09:42:45.913Z,84.38
2018-07-03T09:43:45.908Z,84.38
2018-07-03T09:44:45.891Z,84.38
2018-07-03T09:45:45.881Z,84.38
2018-07-03T09:46:45.895Z,84.38
2018-07-03T09:47:45.858Z,84.38
2018-07-03T09:48:45.876Z,84.38
2018-07-03T09:49:45.836Z,84.38
2018-07-03T09:50:45.827Z,84.38
2018-07-03T09:51:45.844Z,84.38
2018-07-03T09:52:45.803Z,84.38
2018-07-03T09:53:45.792Z,90.00
2018-07-03T09:54:45.873Z,90.00
2018-07-03T09:55:45.772Z,90.00
2018-07-03T09:56:45.782Z,90.00
2018-07-03T09:57:45.757Z,90.00
2018-07-03T09:58:45.736Z,90.00
2018-07-03T09:59:45.727Z,90.00
2018-07-03T10:00:45.716Z,90.00
2018-07-03T10:01:45.728Z,90.00
2018-07-03T10:02:45.694Z,90.00
2018-07-03T10:03:45.683Z,90.00
2018-07-03T10:04:45.672Z,90.00
2018-07-03T10:05:45.660Z,90.00
2018-07-03T10:06:45.674Z,90.00
2018-07-03T10:07:45.641Z,90.00
2018-07-03T10:08:45.629Z,90.00
2018-07-03T10:09:45.619Z,90.00
2018-07-03T10:10:45.606Z,90.00
2018-07-03T10:11:45.603Z,90.00
2018-07-03T10:12:45.606Z,90.00
2018-07-03T10:13:45.573Z,90.00
2018-07-03T10:14:45.562Z,90.00
2018-07-03T10:15:45.551Z,90.00
2018-07-03T10:16:45.541Z,90.00
2018-07-03T10:17:45.573Z,90.00
2018-07-03T10:18:45.555Z,90.00
2018-07-03T10:19:45.509Z,90.00
2018-07-03T10:20:45.497Z,90.00
2018-07-03T10:21:45.487Z,90.00
2018-07-03T10:22:45.499Z,90.00
2018-07-03T10:23:45.463Z,90.00
2018-07-03T10:24:45.454Z,90.00
2018-07-03T10:25:45.443Z,90.00
2018-07-03T10:26:45.470Z,90.00
2018-07-03T10:27:45.427Z,90.00
2018-07-03T10:28:45.408Z,90.00
2018-07-03T10:29:45.408Z,90.00
2018-07-03T10:30:45.387Z,90.00
2018-07-03T10:31:45.377Z,90.00
2018-07-03T10:32:45.387Z,78.75
2018-07-03T10:33:45.354Z,90.00
2018-07-03T10:34:45.343Z,90.00
2018-07-03T10:35:45.332Z,90.00
2018-07-03T10:36:45.320Z,90.00
2018-07-03T10:37:45.338Z,95.62
2018-07-03T10:38:45.299Z,95.62
2018-07-03T10:39:45.288Z,95.62
2018-07-03T10:40:45.277Z,95.62
2018-07-03T10:41:45.267Z,95.62
2018-07-03T10:42:45.278Z,95.62
2018-07-03T10:43:45.245Z,95.62
2018-07-03T10:44:45.233Z,95.62
2018-07-03T10:45:45.222Z,95.62
2018-07-03T10:46:45.211Z,95.62
2018-07-03T10:47:45.228Z,95.62
2018-07-03T10:48:45.210Z,95.62
2018-07-03T10:49:45.177Z,95.62
2018-07-03T10:50:45.166Z,95.62
2018-07-03T10:51:45.156Z,95.62
2018-07-03T10:52:45.167Z,95.62
2018-07-03T10:53:45.134Z,95.62
2018-07-03T10:54:45.123Z,95.62
2018-07-03T10:55:45.114Z,95.62
2018-07-03T10:56:45.106Z,101.25
2018-07-03T10:57:45.124Z,101.25
2018-07-03T10:58:45.078Z,101.25
2018-07-03T10:59:45.068Z,101.25
2018-07-03T11:00:45.064Z,101.25
2018-07-03T11:01:45.050Z,101.25
2018-07-03T11:02:45.058Z,101.25
2018-07-03T11:03:45.023Z,101.25
2018-07-03T11:04:45.025Z,101.25
2018-07-03T11:05:45.077Z,101.25
2018-07-03T11:06:44.990Z,101.25
2018-07-03T11:07:47.384Z,101.25
2018-07-03T11:08:45.024Z,101.25
2018-07-03T11:09:45.135Z,101.25
2018-07-03T11:10:44.947Z,101.25
2018-07-03T11:11:44.937Z,101.25
2018-07-03T11:12:44.948Z,106.88
2018-07-03T11:13:44.969Z,106.88
2018-07-03T11:14:44.902Z,106.88
2018-07-03T11:15:44.895Z,106.88
2018-07-03T11:16:44.891Z,106.88
2018-07-03T11:17:44.993Z,106.88
2018-07-03T11:18:44.860Z,106.88
2018-07-03T11:19:45.410Z,106.88
2018-07-03T11:20:44.836Z,106.88
2018-07-03T11:21:44.825Z,112.50
2018-07-03T11:22:44.840Z,112.50
2018-07-03T11:23:44.803Z,112.50
2018-07-03T11:24:44.794Z,112.50
2018-07-03T11:25:44.782Z,112.50
2018-07-03T11:26:44.772Z,112.50
2018-07-03T11:27:44.781Z,112.50
2018-07-03T11:28:44.749Z,118.12
2018-07-03T11:29:44.737Z,118.12
2018-07-03T11:30:44.726Z,118.12
2018-07-03T11:31:44.715Z,118.12
2018-07-03T11:32:44.727Z,118.12
2018-07-03T11:33:44.751Z,118.12
2018-07-03T11:34:44.682Z,123.75
2018-07-03T11:35:44.672Z,123.75
2018-07-03T11:36:44.661Z,123.75
2018-07-03T11:37:44.729Z,112.50
2018-07-03T11:38:44.638Z,129.38
2018-07-03T11:39:44.627Z,129.38
2018-07-03T11:40:44.618Z,129.38
2018-07-03T11:41:44.606Z,129.38
2018-07-03T11:42:44.619Z,129.38
2018-07-03T11:43:44.583Z,129.38
2018-07-03T11:44:44.623Z,135.00
2018-07-03T11:45:44.562Z,135.00
2018-07-03T11:46:44.551Z,135.00
2018-07-03T11:47:44.541Z,140.62
2018-07-03T11:48:44.551Z,140.62
2018-07-03T11:49:44.517Z,146.25
2018-07-03T11:50:44.507Z,146.25
2018-07-03T11:51:44.495Z,151.88
2018-07-03T11:52:44.487Z,151.88
2018-07-03T11:53:44.497Z,157.50
2018-07-03T11:54:44.462Z,157.50
2018-07-03T11:55:44.452Z,163.12
2018-07-03T11:56:44.445Z,163.12
2018-07-03T11:57:44.460Z,163.12
2018-07-03T11:58:44.418Z,163.12
2018-07-03T11:59:44.406Z,163.12
2018-07-03T12:00:44.398Z,168.75
2018-07-03T12:01:44.451Z,191.25
2018-07-03T12:02:44.375Z,196.88
2018-07-03T12:03:44.385Z,196.88
2018-07-03T12:04:44.352Z,202.50
2018-07-03T12:05:44.340Z,202.50
2018-07-03T12:06:44.332Z,202.50
2018-07-03T12:07:44.321Z,202.50
2018-07-03T12:08:44.330Z,208.12
2018-07-03T12:09:44.298Z,213.75
2018-07-03T12:10:44.285Z,219.38
2018-07-03T12:11:44.275Z,236.25
2018-07-03T12:12:44.263Z,247.50
2018-07-03T12:13:44.277Z,264.38
2018-07-03T12:14:44.242Z,298.12
2018-07-03T12:15:44.232Z,331.88
2018-07-03T12:16:44.222Z,337.50
2018-07-03T12:17:44.212Z,337.50
2018-07-03T12:18:44.224Z,337.50
2018-07-03T12:19:44.295Z,337.50
2018-07-03T12:20:44.180Z,326.25
2018-07-03T12:21:44.169Z,320.62
2018-07-03T12:22:44.159Z,315.00
2018-07-03T12:23:44.167Z,292.50
2018-07-03T12:24:44.135Z,281.25
2018-07-03T12:25:44.123Z,270.00
2018-07-03T12:26:44.115Z,258.75
2018-07-03T12:27:44.101Z,253.12
2018-07-03T12:28:44.115Z,253.12
2018-07-03T12:29:44.080Z,253.12
2018-07-03T12:30:44.071Z,258.75
2018-07-03T12:31:44.059Z,258.75
2018-07-03T12:32:44.048Z,258.75
2018-07-03T12:33:44.060Z,264.38
2018-07-03T12:34:44.028Z,264.38
2018-07-03T12:35:44.017Z,264.38
2018-07-03T12:36:44.048Z,270.00
2018-07-03T12:37:43.994Z,270.00
2018-07-03T12:38:44.007Z,275.62
2018-07-03T12:39:43.973Z,275.62
2018-07-03T12:40:43.962Z,281.25
2018-07-03T12:41:43.950Z,281.25
2018-07-03T12:42:43.941Z,286.88
2018-07-03T12:43:43.954Z,286.88
2018-07-03T12:44:43.920Z,292.50
2018-07-03T12:45:43.908Z,292.50
2018-07-03T12:46:43.898Z,298.12
2018-07-03T12:47:43.929Z,298.12
2018-07-03T12:48:43.900Z,298.12
2018-07-03T12:49:43.908Z,303.75
2018-07-03T12:50:43.856Z,303.75
2018-07-03T12:51:43.848Z,309.38
2018-07-03T12:52:43.833Z,309.38
2018-07-03T12:53:43.846Z,315.00
2018-07-03T12:54:43.812Z,315.00
2018-07-03T12:55:43.803Z,320.62
2018-07-03T12:56:43.793Z,320.62
2018-07-03T12:57:43.781Z,326.25
2018-07-03T12:58:43.794Z,326.25